Terminal Aerodrome Forecast
Issued by NWS

Home | Current Version | Previous Version | Text Only | Print | Product List | Glossary Off
Versions: 1 2 3 4 5 6 7 8 9 10 11 12 13 14 15 16

000
FTUS43 KGRB 032331
TAFCWA
TAF
KCWA 032331Z 0400/0424 26007KT P6SM SCT040 BKN110
     FM040300 VRB03KT P6SM SCT040 SCT110
     FM040900 VRB02KT 5SM BR FEW003
     FM041300 10003KT P6SM SCT035
     FM041500 21005KT P6SM SCT080=

USA.gov is the U.S. government's official web portal to all federal, state and local government web resources and services.